createdAt,value
2022-09-17T00:00:05.547Z,0.3
2022-09-17T00:01:45.305Z,0.3
2022-09-17T00:03:24.960Z,0.28
2022-09-17T00:05:04.836Z,0.27
2022-09-17T00:06:44.610Z,0.3
2022-09-17T00:08:24.408Z,0.27
2022-09-17T00:10:04.052Z,0.25
2022-09-17T00:11:43.789Z,0.26
2022-09-17T00:13:23.702Z,0.28
2022-09-17T00:15:03.399Z,0.25
2022-09-17T00:16:43.094Z,0.25
2022-09-17T00:18:22.936Z,0.27
2022-09-17T00:20:02.652Z,0.29
2022-09-17T00:21:42.535Z,0.26
2022-09-17T00:23:22.171Z,0.24
2022-09-17T00:25:02.078Z,0.26
2022-09-17T00:26:41.849Z,0.28
2022-09-17T00:28:21.558Z,0.3
2022-09-17T00:30:01.341Z,0.24
2022-09-17T00:31:40.999Z,0.29
2022-09-17T00:33:20.770Z,0.26
2022-09-17T00:35:00.640Z,0.28
2022-09-17T00:38:20.183Z,0.28
2022-09-17T00:39:59.977Z,0.26
2022-09-17T00:41:39.713Z,0.28
2022-09-17T00:43:19.461Z,0.28
2022-09-17T00:44:59.298Z,0.28
2022-09-17T00:46:39.033Z,0.3
2022-09-17T00:48:18.788Z,0.28
2022-09-17T00:49:58.487Z,0.28
2022-09-17T00:51:38.246Z,0.26
2022-09-17T00:53:17.996Z,0.24
2022-09-17T00:54:57.843Z,0.26
2022-09-17T00:56:37.663Z,0.26
2022-09-17T00:58:17.382Z,0.23
2022-09-17T00:59:57.114Z,0.23
2022-09-17T01:01:36.927Z,0.23
2022-09-17T01:03:16.591Z,0.27
2022-09-17T01:04:56.461Z,0.27
2022-09-17T01:06:36.202Z,0.27
2022-09-17T01:08:15.923Z,0.24
2022-09-17T01:09:55.757Z,0.27
2022-09-17T01:11:35.570Z,0.26
2022-09-17T01:13:15.311Z,0.24
2022-09-17T01:14:54.988Z,0.24
2022-09-17T01:16:34.746Z,0.23
2022-09-17T01:18:14.616Z,0.23
2022-09-17T01:19:54.344Z,0.23
2022-09-17T01:21:34.118Z,0.27
2022-09-17T01:23:13.921Z,0.23
2022-09-17T01:24:53.652Z,0.25
2022-09-17T01:26:33.345Z,0.23
2022-09-17T01:28:13.143Z,0.25
2022-09-17T01:31:32.748Z,0.22
2022-09-17T01:33:12.513Z,0.24
2022-09-17T01:34:52.304Z,0.23
2022-09-17T01:36:32.032Z,0.23
2022-09-17T01:38:11.691Z,0.24
2022-09-17T01:39:51.569Z,0.23
2022-09-17T01:41:31.395Z,0.25
2022-09-17T01:43:11.114Z,0.26
2022-09-17T01:44:50.908Z,0.23
2022-09-17T01:46:30.689Z,0.24
2022-09-17T01:48:10.372Z,0.23
2022-09-17T01:49:50.189Z,0.23
2022-09-17T01:51:29.879Z,0.23
2022-09-17T01:53:09.738Z,0.26
2022-09-17T01:54:49.457Z,0.28
2022-09-17T01:56:29.138Z,0.27
2022-09-17T01:58:09.016Z,0.26
2022-09-17T02:01:28.511Z,0.26
2022-09-17T02:03:08.258Z,0.23
2022-09-17T02:04:48.156Z,0.22
2022-09-17T02:06:27.850Z,0.24
2022-09-17T02:08:07.531Z,0.26
2022-09-17T02:11:27.135Z,0.27
2022-09-17T02:13:06.816Z,0.25
2022-09-17T02:14:46.583Z,0.27
2022-09-17T02:16:26.414Z,0.25
2022-09-17T02:18:06.108Z,0.29
2022-09-17T02:19:45.945Z,0.24
2022-09-17T02:21:25.744Z,0.24
2022-09-17T02:23:05.411Z,0.27
2022-09-17T02:24:45.333Z,0.24
2022-09-17T02:26:25.088Z,0.23
2022-09-17T02:29:44.633Z,0.29
2022-09-17T02:31:24.346Z,0.29
2022-09-17T02:33:04.201Z,0.3
2022-09-17T02:34:43.892Z,0.27
2022-09-17T02:36:23.560Z,0.26
2022-09-17T02:38:03.424Z,0.25
2022-09-17T02:39:43.106Z,0.27
2022-09-17T02:41:22.976Z,0.25
2022-09-17T02:43:02.692Z,0.28
2022-09-17T02:44:42.514Z,0.26
2022-09-17T02:46:22.240Z,0.28
2022-09-17T02:48:01.945Z,0.3
2022-09-17T02:49:41.708Z,0.27
2022-09-17T02:51:21.617Z,0.3
2022-09-17T02:53:01.319Z,0.25
2022-09-17T02:54:41.107Z,0.26
2022-09-17T02:56:20.770Z,0.26
2022-09-17T02:58:00.650Z,0.3
2022-09-17T02:59:40.423Z,0.26
2022-09-17T03:01:20.171Z,0.28
2022-09-17T03:02:59.929Z,0.28
2022-09-17T03:04:39.604Z,0.26
2022-09-17T03:06:19.364Z,0.28
2022-09-17T03:07:59.142Z,0.29
2022-09-17T03:09:39.030Z,0.28
2022-09-17T03:11:18.683Z,0.25
2022-09-17T03:12:58.436Z,0.3
2022-09-17T03:14:38.247Z,0.3
2022-09-17T03:16:18.128Z,0.29
2022-09-17T03:17:57.818Z,0.27
2022-09-17T03:19:37.600Z,0.3
2022-09-17T03:21:17.293Z,0.3
2022-09-17T03:24:36.874Z,0.3
2022-09-17T03:26:16.587Z,0.28
2022-09-17T03:27:56.406Z,0.27
2022-09-17T03:29:36.123Z,0.3
2022-09-17T03:31:15.885Z,0.31
2022-09-17T03:32:55.683Z,0.32
2022-09-17T03:34:35.413Z,0.28
2022-09-17T03:36:15.327Z,0.28
2022-09-17T03:37:55.074Z,0.3
2022-09-17T03:41:14.643Z,0.28
2022-09-17T03:42:54.252Z,0.28
2022-09-17T03:44:34.140Z,0.32
2022-09-17T03:46:13.901Z,0.31
2022-09-17T03:47:53.558Z,0.3
2022-09-17T03:49:33.465Z,0.33
2022-09-17T03:51:13.243Z,0.32
2022-09-17T03:52:52.872Z,0.35
2022-09-17T03:54:32.612Z,0.37
2022-09-17T03:56:12.392Z,0.38
2022-09-17T03:57:52.303Z,0.44
2022-09-17T04:01:11.780Z,0.52
2022-09-17T04:02:51.578Z,0.55
2022-09-17T04:04:31.290Z,0.65
2022-09-17T04:06:10.987Z,0.81
2022-09-17T04:07:50.743Z,1.05
2022-09-17T04:09:30.529Z,1.37
2022-09-17T04:11:10.417Z,2
2022-09-17T04:12:50.173Z,2.71
2022-09-17T04:14:29.895Z,4.35
2022-09-17T04:16:09.640Z,5.88
2022-09-17T04:17:49.331Z,6.55
2022-09-17T04:19:29.079Z,7
2022-09-17T04:21:08.843Z,7.43
2022-09-17T04:22:48.665Z,8.39
2022-09-17T04:24:28.565Z,10.82
2022-09-17T04:26:08.274Z,15.71
2022-09-17T04:27:47.924Z,22.17
2022-09-17T04:29:27.767Z,25.6
2022-09-17T04:31:07.438Z,27.85
2022-09-17T04:32:47.201Z,26.84
2022-09-17T04:34:26.964Z,26.89
2022-09-17T04:36:06.729Z,26.89
2022-09-17T04:37:46.499Z,26.9
2022-09-17T04:39:26.370Z,26.9
2022-09-17T04:41:06.032Z,26.9
2022-09-17T04:42:45.910Z,26.92
2022-09-17T04:44:25.676Z,26.92
2022-09-17T04:46:05.513Z,26.93
2022-09-17T04:49:24.976Z,26.93
2022-09-17T04:51:04.775Z,26.94
2022-09-17T04:52:44.543Z,26.94
2022-09-17T04:54:24.216Z,26.95
2022-09-17T04:56:04.079Z,26.94
2022-09-17T04:57:43.684Z,26.95
2022-09-17T04:59:23.557Z,26.95
2022-09-17T05:01:03.244Z,26.94
2022-09-17T05:02:43.033Z,26.95
2022-09-17T05:04:22.759Z,26.95
2022-09-17T05:06:02.537Z,26.96
2022-09-17T05:07:42.297Z,26.97
2022-09-17T05:09:22.127Z,26.98
2022-09-17T05:11:01.835Z,26.97
2022-09-17T05:12:41.627Z,26.97
2022-09-17T05:14:21.467Z,26.97
2022-09-17T05:17:41.054Z,26.97
2022-09-17T05:19:20.671Z,26.97
2022-09-17T05:21:00.536Z,26.97
2022-09-17T05:22:40.211Z,26.98
2022-09-17T05:24:19.990Z,26.98
2022-09-17T05:25:59.866Z,26.99
2022-09-17T05:27:39.635Z,27
2022-09-17T05:29:19.275Z,27.04
2022-09-17T05:30:59.148Z,73.92
2022-09-17T05:32:38.913Z,32.9
2022-09-17T05:34:18.590Z,27.15
2022-09-17T05:35:58.489Z,27.12
2022-09-17T05:37:38.129Z,27.12
2022-09-17T05:39:17.983Z,27.17
2022-09-17T05:40:57.731Z,27.19
2022-09-17T05:42:37.412Z,27.19
2022-09-17T05:44:17.275Z,27.26
2022-09-17T05:45:57.054Z,27.3
2022-09-17T05:47:36.863Z,27.31
2022-09-17T05:49:16.601Z,27.38
2022-09-17T05:50:56.404Z,27.39
2022-09-17T05:52:36.170Z,27.41
2022-09-17T05:54:15.847Z,27.44
2022-09-17T05:55:55.713Z,27.52
2022-09-17T05:57:35.475Z,27.6
2022-09-17T05:59:15.219Z,27.6
2022-09-17T06:00:54.991Z,27.63
2022-09-17T06:02:34.771Z,27.69
2022-09-17T06:04:14.566Z,27.77
2022-09-17T06:05:54.333Z,27.79
2022-09-17T06:07:34.089Z,27.85
2022-09-17T06:09:13.788Z,27.82
2022-09-17T06:10:53.665Z,27.8
2022-09-17T06:12:33.336Z,27.81
2022-09-17T06:14:13.194Z,27.78
2022-09-17T06:15:52.926Z,27.79
2022-09-17T06:17:32.722Z,27.77
2022-09-17T06:20:52.247Z,27.85
2022-09-17T06:22:31.914Z,27.92
2022-09-17T06:24:11.840Z,27.95
2022-09-17T06:25:51.575Z,27.96
2022-09-17T06:27:31.304Z,28.05
2022-09-17T06:30:50.895Z,28.18
2022-09-17T06:32:30.662Z,71.28
2022-09-17T06:34:10.374Z,72.64
2022-09-17T06:35:50.197Z,71.11
2022-09-17T06:37:29.962Z,72.87
2022-09-17T06:39:09.757Z,71.99
2022-09-17T06:40:49.473Z,72.12
2022-09-17T06:42:29.163Z,73.03
2022-09-17T06:44:08.959Z,72.07
2022-09-17T06:45:48.741Z,72.49
2022-09-17T06:47:28.533Z,71.73
2022-09-17T06:49:08.225Z,72.33
2022-09-17T06:50:48.010Z,72.8
2022-09-17T06:52:27.786Z,69.83
2022-09-17T06:54:07.537Z,51.26
2022-09-17T06:55:47.309Z,53.11
2022-09-17T06:57:27.097Z,53.79
2022-09-17T06:59:06.858Z,55.2
2022-09-17T07:00:46.624Z,82.1
2022-09-17T07:02:26.409Z,84.11
2022-09-17T07:04:06.202Z,83.23
2022-09-17T07:05:45.943Z,80.57
2022-09-17T07:09:05.477Z,42.21
2022-09-17T07:10:45.263Z,30.26
2022-09-17T07:12:25.014Z,71.14
2022-09-17T07:14:04.796Z,69.08
2022-09-17T07:15:44.561Z,69.51
2022-09-17T07:17:24.323Z,38.18
2022-09-17T07:19:04.118Z,29.41
2022-09-17T07:20:43.864Z,29.31
2022-09-17T07:22:23.635Z,29.32
2022-09-17T07:24:03.406Z,29.31
2022-09-17T07:25:43.169Z,29.2
2022-09-17T07:27:22.975Z,29.31
2022-09-17T07:29:02.749Z,29.27
2022-09-17T07:30:42.489Z,29.17
2022-09-17T07:32:22.265Z,29.17
2022-09-17T07:34:02.032Z,29.32
2022-09-17T07:35:41.792Z,28.8
2022-09-17T07:37:21.566Z,28.83
2022-09-17T07:39:01.373Z,28.88
2022-09-17T07:40:41.105Z,29
2022-09-17T07:42:20.870Z,29.97
2022-09-17T07:44:00.630Z,85.82
2022-09-17T07:45:40.410Z,83.07
2022-09-17T07:47:20.179Z,84.49
2022-09-17T07:48:59.982Z,84.68
2022-09-17T07:50:39.726Z,82.84
2022-09-17T07:52:19.497Z,82.52
2022-09-17T07:53:59.272Z,83.16
2022-09-17T07:55:39.029Z,85.57
2022-09-17T07:57:18.805Z,85.3
2022-09-17T07:58:58.563Z,84.59
2022-09-17T08:00:38.337Z,83.01
2022-09-17T08:02:18.124Z,83.06
2022-09-17T08:03:57.890Z,83.02
2022-09-17T08:05:37.654Z,83.12
2022-09-17T08:07:17.431Z,83.42
2022-09-17T08:08:57.211Z,83.19
2022-09-17T08:10:36.961Z,83.78
2022-09-17T08:12:16.744Z,83.61
2022-09-17T08:13:56.517Z,84.99
2022-09-17T08:15:36.275Z,86.49
2022-09-17T08:17:16.053Z,84.9
2022-09-17T08:20:35.582Z,83.85
2022-09-17T08:22:15.371Z,82.63
2022-09-17T08:23:55.123Z,83.47
2022-09-17T08:25:34.895Z,83.46
2022-09-17T08:27:14.709Z,82.78
2022-09-17T08:28:54.446Z,82.94
2022-09-17T08:30:34.210Z,84.71
2022-09-17T08:32:14.000Z,85.26
2022-09-17T08:33:53.766Z,84.33
2022-09-17T08:35:33.540Z,84.96
2022-09-17T08:37:13.321Z,85.16
2022-09-17T08:40:32.844Z,85.76
2022-09-17T08:42:12.606Z,82.83
2022-09-17T08:45:32.140Z,89.5
2022-09-17T08:47:11.920Z,88.74
2022-09-17T08:48:51.707Z,88.95
2022-09-17T08:50:31.467Z,88.15
2022-09-17T08:52:11.266Z,83.57
2022-09-17T08:53:51.003Z,83.63
2022-09-17T08:55:30.809Z,82.71
2022-09-17T08:57:10.559Z,88.07
2022-09-17T08:58:50.316Z,87.33
2022-09-17T09:00:30.073Z,87.33
2022-09-17T09:02:09.851Z,83.03
2022-09-17T09:03:49.642Z,84.49
2022-09-17T09:05:29.386Z,83.69
2022-09-17T09:07:09.159Z,81.58
2022-09-17T09:08:48.982Z,81.91
2022-09-17T09:10:28.701Z,83.19
2022-09-17T09:12:08.462Z,89.34
2022-09-17T09:13:48.249Z,83.04
2022-09-17T09:15:28.021Z,83.38
2022-09-17T09:17:07.786Z,81.39
2022-09-17T09:18:47.552Z,82.78
2022-09-17T09:20:27.332Z,83.92
2022-09-17T09:22:07.114Z,84.56
2022-09-17T09:23:46.876Z,84.44
2022-09-17T09:25:26.632Z,84.31
2022-09-17T09:27:06.410Z,83.03
2022-09-17T09:28:46.172Z,83.22
2022-09-17T09:30:25.942Z,85.4
2022-09-17T09:33:45.492Z,89
2022-09-17T09:35:25.270Z,86.03
2022-09-17T09:37:05.029Z,88.99
2022-09-17T09:38:44.817Z,84.68
2022-09-17T09:40:24.576Z,83.56
2022-09-17T09:42:04.339Z,83.85
2022-09-17T09:43:44.119Z,83.86
2022-09-17T09:45:23.878Z,84.03
2022-09-17T09:47:03.675Z,83.85
2022-09-17T09:48:43.434Z,84.38
2022-09-17T09:50:23.207Z,85.14
2022-09-17T09:52:03.090Z,85.66
2022-09-17T09:53:42.767Z,84.74
2022-09-17T09:55:22.599Z,82.24
2022-09-17T09:57:02.421Z,81.33
2022-09-17T09:58:42.173Z,81.31
2022-09-17T10:00:21.861Z,81.53
2022-09-17T10:02:01.662Z,80.43
2022-09-17T10:03:41.375Z,80.44
2022-09-17T10:05:21.118Z,80.54
2022-09-17T10:07:00.944Z,80.62
2022-09-17T10:08:40.703Z,82.25
2022-09-17T10:10:20.430Z,83.64
2022-09-17T10:12:00.284Z,83.79
2022-09-17T10:13:39.979Z,84.33
2022-09-17T10:15:19.739Z,84.94
2022-09-17T10:16:59.530Z,84.92
2022-09-17T10:18:39.302Z,85.44
2022-09-17T10:20:19.074Z,85.62
2022-09-17T10:21:58.831Z,86.69
2022-09-17T10:23:38.612Z,90.02
2022-09-17T10:25:18.377Z,88.9
2022-09-17T10:26:58.205Z,88.42
2022-09-17T10:28:37.923Z,83.74
2022-09-17T10:30:17.696Z,85.38
2022-09-17T10:31:57.507Z,85.23
2022-09-17T10:33:37.233Z,87.46
2022-09-17T10:35:16.991Z,87.09
2022-09-17T10:36:56.781Z,86.97
2022-09-17T10:38:36.527Z,81.42
2022-09-17T10:40:16.304Z,81.06
2022-09-17T10:41:56.085Z,82.78
2022-09-17T10:43:35.842Z,84.65
2022-09-17T10:45:15.609Z,84.11
2022-09-17T10:46:55.374Z,82.66
2022-09-17T10:48:35.158Z,81.74
2022-09-17T10:50:14.930Z,81.83
2022-09-17T10:51:54.695Z,80.85
2022-09-17T10:53:34.488Z,82.24
2022-09-17T10:55:14.232Z,84.21
2022-09-17T10:56:54.025Z,85.46
2022-09-17T10:58:33.769Z,86.61
2022-09-17T11:00:13.555Z,87.58
2022-09-17T11:01:53.324Z,87.98
2022-09-17T11:03:33.090Z,87.74
2022-09-17T11:05:12.859Z,87.19
2022-09-17T11:06:52.638Z,87.42
2022-09-17T11:08:32.412Z,87.98
2022-09-17T11:10:12.153Z,86.95
2022-09-17T11:11:51.923Z,85.39
2022-09-17T11:13:31.694Z,85.12
2022-09-17T11:15:11.477Z,86.22
2022-09-17T11:16:51.252Z,86.67
2022-09-17T11:18:31.032Z,86.03
2022-09-17T11:20:10.777Z,85.5
2022-09-17T11:21:50.642Z,85.59
2022-09-17T11:23:30.327Z,88.2
2022-09-17T11:25:10.086Z,84.31
2022-09-17T11:26:49.875Z,84.57
2022-09-17T11:28:29.630Z,88.68
2022-09-17T11:30:09.400Z,86.94
2022-09-17T11:31:49.175Z,87.9
2022-09-17T11:33:28.953Z,87.38
2022-09-17T11:35:08.732Z,87.99
2022-09-17T11:36:48.488Z,87.03
2022-09-17T11:38:28.265Z,85.96
2022-09-17T11:40:08.024Z,87.24
2022-09-17T11:41:47.790Z,87.4
2022-09-17T11:43:27.598Z,85.23
2022-09-17T11:45:07.333Z,86.75
2022-09-17T11:46:47.108Z,84.34
2022-09-17T11:48:26.870Z,86.3
2022-09-17T11:50:06.689Z,80.91
2022-09-17T11:51:46.439Z,80.71
2022-09-17T11:53:26.190Z,79.22
2022-09-17T11:55:05.953Z,81.96
2022-09-17T11:56:45.728Z,84.42
2022-09-17T11:58:25.508Z,85.62
2022-09-17T12:00:05.281Z,86.4
2022-09-17T12:01:45.048Z,86.87
2022-09-17T12:03:24.804Z,88.24
2022-09-17T12:05:04.579Z,88.97
2022-09-17T12:06:44.360Z,88.13
2022-09-17T12:08:24.162Z,87.02
2022-09-17T12:10:03.917Z,88.33
2022-09-17T12:11:43.656Z,84.58
2022-09-17T12:13:23.444Z,82.97
2022-09-17T12:15:03.201Z,83.58
2022-09-17T12:16:42.975Z,86.92
2022-09-17T12:18:22.756Z,84.91
2022-09-17T12:20:02.525Z,84.05
2022-09-17T12:21:42.279Z,84.96
2022-09-17T12:23:22.082Z,89.12
2022-09-17T12:25:01.823Z,84.05
2022-09-17T12:26:41.592Z,84.15
2022-09-17T12:28:21.371Z,84.57
2022-09-17T12:30:01.138Z,85.35
2022-09-17T12:31:40.905Z,84.88
2022-09-17T12:33:20.678Z,84.52
2022-09-17T12:35:00.454Z,84.28
2022-09-17T12:36:40.228Z,85.33
2022-09-17T12:38:19.987Z,85.89
2022-09-17T12:39:59.790Z,85.99
2022-09-17T12:41:39.554Z,85.89
2022-09-17T12:43:19.294Z,85.94
2022-09-17T12:44:59.079Z,86.87
2022-09-17T12:46:38.831Z,87.67
2022-09-17T12:48:18.635Z,88.75
2022-09-17T12:49:58.375Z,88.72
2022-09-17T12:51:38.161Z,89.39
2022-09-17T12:53:17.932Z,86.69
2022-09-17T12:54:57.683Z,87.35
2022-09-17T12:56:37.566Z,86.72
2022-09-17T12:58:17.280Z,86.49
2022-09-17T12:59:57.037Z,86.47
2022-09-17T13:03:16.539Z,86.19
2022-09-17T13:04:56.307Z,86.25
2022-09-17T13:06:36.073Z,86.32
2022-09-17T13:08:15.860Z,85.02
2022-09-17T13:09:55.753Z,80.33
2022-09-17T13:11:35.526Z,81.21
2022-09-17T13:13:15.324Z,82.21
2022-09-17T13:14:55.085Z,82.8
2022-09-17T13:16:34.824Z,83.34
2022-09-17T13:18:14.478Z,86.74
2022-09-17T13:19:54.340Z,85.18
2022-09-17T13:21:34.094Z,87.03
2022-09-17T13:23:13.911Z,85.28
2022-09-17T13:24:53.591Z,84.57
2022-09-17T13:26:33.512Z,84.13
2022-09-17T13:28:13.266Z,84.74
2022-09-17T13:29:53.006Z,88.25
2022-09-17T13:31:32.635Z,88.46
2022-09-17T13:33:12.428Z,88.46
2022-09-17T13:34:52.326Z,87.62
2022-09-17T13:36:32.100Z,86.73
2022-09-17T13:38:11.717Z,86.51
2022-09-17T13:39:51.603Z,87.42
2022-09-17T13:41:31.385Z,86.9
2022-09-17T13:43:11.169Z,86.81
2022-09-17T13:44:50.806Z,86.86
2022-09-17T13:46:30.707Z,86.83
2022-09-17T13:48:10.344Z,86.78
2022-09-17T13:49:50.177Z,86.67
2022-09-17T13:51:29.893Z,86.97
2022-09-17T13:53:09.807Z,86.1
2022-09-17T13:54:49.569Z,83.94
2022-09-17T13:56:29.192Z,83.37
2022-09-17T13:58:09.015Z,84.46
2022-09-17T13:59:48.886Z,85.22
2022-09-17T14:01:28.633Z,83.2
2022-09-17T14:03:08.433Z,88.31
2022-09-17T14:04:48.187Z,87.81
2022-09-17T14:06:27.968Z,87.17
2022-09-17T14:08:07.725Z,86.26
2022-09-17T14:09:47.509Z,85.68
2022-09-17T14:11:27.278Z,86.38
2022-09-17T14:13:07.051Z,85.06
2022-09-17T14:14:46.812Z,87.4
2022-09-17T14:16:26.472Z,86.92
2022-09-17T14:18:06.342Z,86.44
2022-09-17T14:19:46.120Z,85.58
2022-09-17T14:21:25.912Z,82.59
2022-09-17T14:23:05.636Z,82.19
2022-09-17T14:24:45.434Z,82.41
2022-09-17T14:26:25.123Z,83.12
2022-09-17T14:28:04.954Z,83.44
2022-09-17T14:29:44.759Z,88.02
2022-09-17T14:31:24.440Z,84.54
2022-09-17T14:33:04.152Z,88.52
2022-09-17T14:34:44.016Z,87.36
2022-09-17T14:36:23.824Z,87.31
2022-09-17T14:38:03.615Z,86.74
2022-09-17T14:39:43.380Z,84.55
2022-09-17T14:41:23.082Z,81.36
2022-09-17T14:43:02.896Z,82.12
2022-09-17T14:44:42.666Z,86.63
2022-09-17T14:46:22.303Z,87.27
2022-09-17T14:48:02.248Z,87.55
2022-09-17T14:49:41.991Z,87.26
2022-09-17T14:51:21.763Z,86.44
2022-09-17T14:53:01.511Z,86.34
2022-09-17T14:56:21.071Z,86.72
2022-09-17T14:58:00.849Z,85.49
2022-09-17T14:59:40.609Z,83.97
2022-09-17T15:01:20.252Z,86.9
2022-09-17T15:03:00.152Z,83.85
2022-09-17T15:04:39.937Z,84.11
2022-09-17T15:06:19.677Z,84.83
2022-09-17T15:07:59.463Z,85.93
2022-09-17T15:09:39.250Z,86.58
2022-09-17T15:11:18.864Z,87.31
2022-09-17T15:12:58.773Z,87.53
2022-09-17T15:14:38.575Z,87.38
2022-09-17T15:16:18.282Z,87.05
2022-09-17T15:17:58.081Z,86.99
2022-09-17T15:19:37.888Z,86.79
2022-09-17T15:21:17.596Z,86.69
2022-09-17T15:22:57.400Z,86.71
2022-09-17T15:24:37.023Z,86.59
2022-09-17T15:26:16.944Z,86.62
2022-09-17T15:27:56.695Z,86.58
2022-09-17T15:29:36.369Z,86.56
2022-09-17T15:31:16.116Z,80.73
2022-09-17T15:32:55.973Z,87.32
2022-09-17T15:34:35.648Z,82.28
2022-09-17T15:36:15.577Z,85.21
2022-09-17T15:37:55.315Z,86.82
2022-09-17T15:39:34.963Z,86.78
2022-09-17T15:41:14.866Z,86.66
2022-09-17T15:42:54.500Z,86.68
2022-09-17T15:44:34.326Z,86.8
2022-09-17T15:46:14.125Z,86.81
2022-09-17T15:49:33.667Z,86.72
2022-09-17T15:51:13.423Z,86.68
2022-09-17T15:52:53.121Z,86.84
2022-09-17T15:54:32.921Z,86.66
2022-09-17T15:56:12.763Z,86.46
2022-09-17T15:57:52.437Z,86.35
2022-09-17T15:59:32.310Z,86.43
2022-09-17T16:01:12.088Z,86.28
2022-09-17T16:02:51.811Z,86.25
2022-09-17T16:04:31.662Z,86.31
2022-09-17T16:06:11.350Z,86.18
2022-09-17T16:07:51.190Z,86.02
2022-09-17T16:09:30.816Z,85.9
2022-09-17T16:12:50.393Z,85.75
2022-09-17T16:14:30.207Z,85.57
2022-09-17T16:16:10.014Z,85.49
2022-09-17T16:17:49.792Z,85.56
2022-09-17T16:19:29.454Z,85.59
2022-09-17T16:21:09.217Z,81.76
2022-09-17T16:22:48.988Z,78.08
2022-09-17T16:24:28.860Z,77.6
2022-09-17T16:26:08.555Z,77.4
2022-09-17T16:27:48.347Z,77.61
2022-09-17T16:29:28.177Z,77.71
2022-09-17T16:31:07.972Z,77.51
2022-09-17T16:32:47.710Z,78.93
2022-09-17T16:34:27.507Z,78.26
2022-09-17T16:36:07.239Z,79.04
2022-09-17T16:39:26.731Z,77.86
2022-09-17T16:41:06.609Z,76.94
2022-09-17T16:42:46.345Z,76.31
2022-09-17T16:46:05.782Z,65.08
2022-09-17T16:47:45.662Z,52
2022-09-17T16:49:25.457Z,36.63
2022-09-17T16:51:05.196Z,34.65
2022-09-17T16:52:44.951Z,34.45
2022-09-17T16:54:24.646Z,34.06
2022-09-17T16:56:04.532Z,28.19
2022-09-17T16:57:44.202Z,28.06
2022-09-17T16:59:24.030Z,28.11
2022-09-17T17:01:03.727Z,28.07
2022-09-17T17:02:43.606Z,28.04
2022-09-17T17:04:23.300Z,28.01
2022-09-17T17:06:03.131Z,30.84
2022-09-17T17:07:42.908Z,27.96
2022-09-17T17:09:22.676Z,27.92
2022-09-17T17:11:02.390Z,27.88
2022-09-17T17:12:42.223Z,27.86
2022-09-17T17:14:21.966Z,27.81
2022-09-17T17:16:01.749Z,27.78
2022-09-17T17:17:41.361Z,27.75
2022-09-17T17:19:21.256Z,27.71
2022-09-17T17:21:01.020Z,27.68
2022-09-17T17:22:40.854Z,27.56
2022-09-17T17:24:20.577Z,27.64
2022-09-17T17:26:00.324Z,27.6
2022-09-17T17:27:40.119Z,27.57
2022-09-17T17:29:19.828Z,27.55
2022-09-17T17:30:59.503Z,27.54
2022-09-17T17:32:39.358Z,27.49
2022-09-17T17:34:19.164Z,27.42
2022-09-17T17:35:58.813Z,25.46
2022-09-17T17:37:38.706Z,21.04
2022-09-17T17:39:18.455Z,16.41
2022-09-17T17:40:58.237Z,12.74
2022-09-17T17:42:37.992Z,10.37
2022-09-17T17:44:17.744Z,7.89
2022-09-17T17:47:37.328Z,4.1
2022-09-17T17:49:16.951Z,2.79
2022-09-17T17:50:56.733Z,1.97
2022-09-17T17:52:36.618Z,1.51
2022-09-17T17:54:16.378Z,1.27
2022-09-17T17:55:56.075Z,1.16
2022-09-17T17:57:35.908Z,1.03
2022-09-17T17:59:15.629Z,0.77
2022-09-17T18:00:55.411Z,0.58
2022-09-17T18:02:35.200Z,0.47
2022-09-17T18:05:54.779Z,0.36
2022-09-17T18:07:34.548Z,0.31
2022-09-17T18:09:14.227Z,0.28
2022-09-17T18:10:53.922Z,0.29
2022-09-17T18:12:33.694Z,0.3
2022-09-17T18:14:13.615Z,0.27
2022-09-17T18:15:53.222Z,0.26
2022-09-17T18:17:33.124Z,0.26
2022-09-17T18:19:12.771Z,0.24
2022-09-17T18:20:52.616Z,0.21
2022-09-17T18:22:32.303Z,0.19
2022-09-17T18:24:12.156Z,0.2
2022-09-17T18:25:51.842Z,0.21
2022-09-17T18:27:31.626Z,0.23
2022-09-17T18:29:11.480Z,0.21
2022-09-17T18:30:51.273Z,0.21
2022-09-17T18:32:31.035Z,0.18
2022-09-17T18:34:10.667Z,0.18
2022-09-17T18:35:50.577Z,0.19
2022-09-17T18:37:30.331Z,0.21
2022-09-17T18:39:09.973Z,0.19
2022-09-17T18:40:49.837Z,0.22
2022-09-17T18:42:29.624Z,0.19
2022-09-17T18:44:09.380Z,0.18
2022-09-17T18:45:49.191Z,0.19
2022-09-17T18:47:28.843Z,0.2
2022-09-17T18:49:08.720Z,0.19
2022-09-17T18:50:48.340Z,0.19
2022-09-17T18:52:28.109Z,0.16
2022-09-17T18:54:07.939Z,0.2
2022-09-17T18:55:47.638Z,0.19
2022-09-17T18:57:27.411Z,0.23
2022-09-17T18:59:07.186Z,0.23
2022-09-17T19:00:46.947Z,0.24
2022-09-17T19:02:26.712Z,0.25
2022-09-17T19:04:06.481Z,0.2
2022-09-17T19:05:46.380Z,0.21
2022-09-17T19:07:26.161Z,0.19
2022-09-17T19:09:05.864Z,0.22
2022-09-17T19:10:45.678Z,0.2
2022-09-17T19:12:25.441Z,0.2
2022-09-17T19:14:05.077Z,0.18
2022-09-17T19:15:44.990Z,0.19
2022-09-17T19:17:24.747Z,0.18
2022-09-17T19:19:04.487Z,0.23
2022-09-17T19:20:44.167Z,0.23
2022-09-17T19:22:23.923Z,0.27
2022-09-17T19:24:03.825Z,0.28
2022-09-17T19:25:43.508Z,0.26
2022-09-17T19:27:23.295Z,0.24
2022-09-17T19:29:03.102Z,0.24
2022-09-17T19:30:42.874Z,0.24
2022-09-17T19:32:22.525Z,0.24
2022-09-17T19:34:02.295Z,0.23
2022-09-17T19:35:42.051Z,0.24
2022-09-17T19:37:21.962Z,0.22
2022-09-17T19:39:01.689Z,0.18
2022-09-17T19:40:41.388Z,0.17
2022-09-17T19:42:21.241Z,0.21
2022-09-17T19:44:01.047Z,0.17
2022-09-17T19:45:40.775Z,0.21
2022-09-17T19:47:20.454Z,0.19
2022-09-17T19:49:00.214Z,0.21
2022-09-17T19:50:39.962Z,0.23
2022-09-17T19:52:19.861Z,0.26
2022-09-17T19:53:59.650Z,0.25
2022-09-17T19:55:39.274Z,0.26
2022-09-17T19:57:19.136Z,0.21
2022-09-17T19:58:58.843Z,0.2
2022-09-17T20:00:38.669Z,0.21
2022-09-17T20:02:18.467Z,0.2
2022-09-17T20:03:58.278Z,0.24
2022-09-17T20:05:37.924Z,0.21
2022-09-17T20:07:17.763Z,0.2
2022-09-17T20:08:57.452Z,0.21
2022-09-17T20:10:37.319Z,0.21
2022-09-17T20:12:16.942Z,0.21
2022-09-17T20:13:56.842Z,0.22
2022-09-17T20:15:36.573Z,0.23
2022-09-17T20:17:16.359Z,0.24
2022-09-17T20:20:35.906Z,0.2
2022-09-17T20:22:15.697Z,0.23
2022-09-17T20:23:55.466Z,0.21
2022-09-17T20:25:35.187Z,0.23
2022-09-17T20:27:14.844Z,0.22
2022-09-17T20:28:54.626Z,0.26
2022-09-17T20:30:34.485Z,0.26
2022-09-17T20:32:14.278Z,0.25
2022-09-17T20:33:54.033Z,0.27
2022-09-17T20:35:33.813Z,0.28
2022-09-17T20:37:13.577Z,0.26
2022-09-17T20:38:53.272Z,0.3
2022-09-17T20:40:33.113Z,0.28
2022-09-17T20:42:12.878Z,0.26
2022-09-17T20:43:52.656Z,0.28
2022-09-17T20:45:32.384Z,0.28
2022-09-17T20:47:12.159Z,0.23
2022-09-17T20:48:51.880Z,0.24
2022-09-17T20:50:31.589Z,0.21
2022-09-17T20:52:11.440Z,0.24
2022-09-17T20:53:51.129Z,0.25
2022-09-17T20:55:30.887Z,0.26
2022-09-17T20:57:10.688Z,0.27
2022-09-17T20:58:50.427Z,0.26
2022-09-17T21:00:30.305Z,0.24
2022-09-17T21:02:09.973Z,0.23
2022-09-17T21:03:49.746Z,0.29
2022-09-17T21:05:29.508Z,0.27
2022-09-17T21:07:09.333Z,0.22
2022-09-17T21:08:49.050Z,0.24
2022-09-17T21:10:28.803Z,0.24
2022-09-17T21:12:08.678Z,0.25
2022-09-17T21:13:48.357Z,0.27
2022-09-17T21:15:28.129Z,0.3
2022-09-17T21:17:07.944Z,0.3
2022-09-17T21:18:47.656Z,0.31
2022-09-17T21:20:27.461Z,0.28
2022-09-17T21:22:07.181Z,0.29
2022-09-17T21:23:46.942Z,0.3
2022-09-17T21:25:26.714Z,0.3
2022-09-17T21:27:06.478Z,0.3
2022-09-17T21:28:46.252Z,0.26
2022-09-17T21:30:26.016Z,0.26
2022-09-17T21:32:05.783Z,0.23
2022-09-17T21:33:45.560Z,0.29
2022-09-17T21:35:25.313Z,0.28
2022-09-17T21:37:05.078Z,0.24
2022-09-17T21:38:44.852Z,0.29
2022-09-17T21:40:24.619Z,0.28
2022-09-17T21:42:04.382Z,0.26
2022-09-17T21:43:44.140Z,0.27
2022-09-17T21:45:23.921Z,0.23
2022-09-17T21:47:03.678Z,0.24
2022-09-17T21:48:43.476Z,0.26
2022-09-17T21:50:23.218Z,0.26
2022-09-17T21:52:02.987Z,0.23
2022-09-17T21:53:42.769Z,0.23
2022-09-17T21:55:22.515Z,0.25
2022-09-17T21:57:02.286Z,0.23
2022-09-17T21:58:42.051Z,0.24
2022-09-17T22:00:21.839Z,0.22
2022-09-17T22:02:01.591Z,0.2
2022-09-17T22:03:41.365Z,0.19
2022-09-17T22:05:21.145Z,0.24
2022-09-17T22:07:00.891Z,0.26
2022-09-17T22:08:40.669Z,0.26
2022-09-17T22:10:20.434Z,0.23
2022-09-17T22:12:00.192Z,0.25
2022-09-17T22:13:39.963Z,0.3
2022-09-17T22:15:19.740Z,0.24
2022-09-17T22:16:59.500Z,0.29
2022-09-17T22:18:39.266Z,0.26
2022-09-17T22:20:19.052Z,0.26
2022-09-17T22:21:58.817Z,0.28
2022-09-17T22:23:38.566Z,0.28
2022-09-17T22:25:18.342Z,0.31
2022-09-17T22:26:58.099Z,0.26
2022-09-17T22:28:37.876Z,0.24